sensor_id;sensor_type;location;lat;lon;timestamp;temperature;humidity
68681;DHT22;55836;49.858;6.756;2023-09-18T00:01:14;17.50;99.90
68681;DHT22;55836;49.858;6.756;2023-09-18T00:03:40;17.50;99.90
68681;DHT22;55836;49.858;6.756;2023-09-18T00:06:06;17.50;99.90
68681;DHT22;55836;49.858;6.756;2023-09-18T00:08:31;17.60;99.90
68681;DHT22;55836;49.858;6.756;2023-09-18T00:10:57;17.60;99.90
68681;DHT22;55836;49.858;6.756;2023-09-18T00:13:23;17.60;99.90
68681;DHT22;55836;49.858;6.756;2023-09-18T00:15:49;17.60;99.90
68681;DHT22;55836;49.858;6.756;2023-09-18T00:18:17;17.70;99.90
68681;DHT22;55836;49.858;6.756;2023-09-18T00:20:43;17.70;99.90
68681;DHT22;55836;49.858;6.756;2023-09-18T00:23:09;17.80;99.90
68681;DHT22;55836;49.858;6.756;2023-09-18T00:25:34;17.80;99.90
68681;DHT22;55836;49.858;6.756;2023-09-18T00:28:00;17.90;99.90
68681;DHT22;55836;49.858;6.756;2023-09-18T00:30:26;17.90;99.90
68681;DHT22;55836;49.858;6.756;2023-09-18T00:32:51;17.90;99.90
68681;DHT22;55836;49.858;6.756;2023-09-18T00:35:17;17.90;99.90
68681;DHT22;55836;49.858;6.756;2023-09-18T00:37:43;18.00;99.90
68681;DHT22;55836;49.858;6.756;2023-09-18T00:40:09;18.00;99.90
68681;DHT22;55836;49.858;6.756;2023-09-18T00:42:34;18.00;99.90
68681;DHT22;55836;49.858;6.756;2023-09-18T00:45:00;18.00;99.90
68681;DHT22;55836;49.858;6.756;2023-09-18T00:47:25;18.00;99.90
68681;DHT22;55836;49.858;6.756;2023-09-18T00:49:52;18.10;99.90
68681;DHT22;55836;49.858;6.756;2023-09-18T00:52:19;18.10;99.90
68681;DHT22;55836;49.858;6.756;2023-09-18T00:54:47;18.10;99.90
68681;DHT22;55836;49.858;6.756;2023-09-18T00:57:13;18.10;99.90
68681;DHT22;55836;49.858;6.756;2023-09-18T00:59:39;18.00;99.90
68681;DHT22;55836;49.858;6.756;2023-09-18T01:02:06;17.90;99.90
68681;DHT22;55836;49.858;6.756;2023-09-18T01:04:33;17.80;99.90
68681;DHT22;55836;49.858;6.756;2023-09-18T01:07:00;17.80;99.90
68681;DHT22;55836;49.858;6.756;2023-09-18T01:09:31;17.80;99.90
68681;DHT22;55836;49.858;6.756;2023-09-18T01:12:17;17.80;99.90
68681;DHT22;55836;49.858;6.756;2023-09-18T01:14:55;17.80;99.90
68681;DHT22;55836;49.858;6.756;2023-09-18T01:17:22;17.90;99.90
68681;DHT22;55836;49.858;6.756;2023-09-18T01:19:48;17.70;99.90
68681;DHT22;55836;49.858;6.756;2023-09-18T01:22:16;17.70;99.90
68681;DHT22;55836;49.858;6.756;2023-09-18T01:24:43;17.80;99.90
68681;DHT22;55836;49.858;6.756;2023-09-18T01:27:11;18.00;99.90
68681;DHT22;55836;49.858;6.756;2023-09-18T01:29:40;17.90;99.90
68681;DHT22;55836;49.858;6.756;2023-09-18T01:32:06;17.80;99.90
68681;DHT22;55836;49.858;6.756;2023-09-18T01:34:35;17.80;99.90
68681;DHT22;55836;49.858;6.756;2023-09-18T01:37:03;17.80;99.90
68681;DHT22;55836;49.858;6.756;2023-09-18T01:39:31;17.90;99.90
68681;DHT22;55836;49.858;6.756;2023-09-18T01:42:05;18.10;99.90
68681;DHT22;55836;49.858;6.756;2023-09-18T01:44:31;18.00;99.90
68681;DHT22;55836;49.858;6.756;2023-09-18T01:47:03;17.90;99.90
68681;DHT22;55836;49.858;6.756;2023-09-18T01:49:29;18.00;99.90
68681;DHT22;55836;49.858;6.756;2023-09-18T01:51:56;18.00;99.90
68681;DHT22;55836;49.858;6.756;2023-09-18T01:54:21;18.00;99.90
68681;DHT22;55836;49.858;6.756;2023-09-18T01:56:47;17.80;99.90
68681;DHT22;55836;49.858;6.756;2023-09-18T01:59:13;17.70;99.90
68681;DHT22;55836;49.858;6.756;2023-09-18T02:01:38;17.80;99.90
68681;DHT22;55836;49.858;6.756;2023-09-18T02:04:04;17.90;99.90
68681;DHT22;55836;49.858;6.756;2023-09-18T02:06:30;18.00;99.90
68681;DHT22;55836;49.858;6.756;2023-09-18T02:08:56;17.70;99.90
68681;DHT22;55836;49.858;6.756;2023-09-18T02:11:21;17.80;99.90
68681;DHT22;55836;49.858;6.756;2023-09-18T02:13:47;17.90;99.90
68681;DHT22;55836;49.858;6.756;2023-09-18T02:16:13;17.90;99.90
68681;DHT22;55836;49.858;6.756;2023-09-18T02:18:38;17.70;99.90
68681;DHT22;55836;49.858;6.756;2023-09-18T02:21:04;17.70;99.90
68681;DHT22;55836;49.858;6.756;2023-09-18T02:23:29;17.70;99.90
68681;DHT22;55836;49.858;6.756;2023-09-18T02:25:56;17.60;99.90
68681;DHT22;55836;49.858;6.756;2023-09-18T02:28:22;17.50;99.90
68681;DHT22;55836;49.858;6.756;2023-09-18T02:30:48;17.40;99.90
68681;DHT22;55836;49.858;6.756;2023-09-18T02:33:13;17.60;99.90
68681;DHT22;55836;49.858;6.756;2023-09-18T02:35:40;17.50;99.90
68681;DHT22;55836;49.858;6.756;2023-09-18T02:38:05;17.50;99.90
68681;DHT22;55836;49.858;6.756;2023-09-18T02:40:31;17.60;99.90
68681;DHT22;55836;49.858;6.756;2023-09-18T02:42:56;17.50;99.90
68681;DHT22;55836;49.858;6.756;2023-09-18T02:45:22;17.60;99.90
68681;DHT22;55836;49.858;6.756;2023-09-18T02:47:48;17.40;99.90
68681;DHT22;55836;49.858;6.756;2023-09-18T02:50:13;17.50;99.90
68681;DHT22;55836;49.858;6.756;2023-09-18T02:52:39;17.40;99.90
68681;DHT22;55836;49.858;6.756;2023-09-18T02:55:05;17.70;99.90
68681;DHT22;55836;49.858;6.756;2023-09-18T02:57:30;17.30;99.90
68681;DHT22;55836;49.858;6.756;2023-09-18T02:59:58;17.60;99.90
68681;DHT22;55836;49.858;6.756;2023-09-18T03:02:24;17.60;99.90
68681;DHT22;55836;49.858;6.756;2023-09-18T03:04:50;17.60;99.90
68681;DHT22;55836;49.858;6.756;2023-09-18T03:07:16;17.60;99.90
68681;DHT22;55836;49.858;6.756;2023-09-18T03:09:41;17.60;99.90
68681;DHT22;55836;49.858;6.756;2023-09-18T03:12:07;17.50;99.90
68681;DHT22;55836;49.858;6.756;2023-09-18T03:14:33;17.50;99.90
68681;DHT22;55836;49.858;6.756;2023-09-18T03:16:59;17.50;99.90
68681;DHT22;55836;49.858;6.756;2023-09-18T03:19:25;17.50;99.90
68681;DHT22;55836;49.858;6.756;2023-09-18T03:21:52;17.40;99.90
68681;DHT22;55836;49.858;6.756;2023-09-18T03:24:18;17.50;99.90
68681;DHT22;55836;49.858;6.756;2023-09-18T03:26:43;17.50;99.90
68681;DHT22;55836;49.858;6.756;2023-09-18T03:29:10;17.50;99.90
68681;DHT22;55836;49.858;6.756;2023-09-18T03:31:35;17.60;99.90
68681;DHT22;55836;49.858;6.756;2023-09-18T03:34:01;17.30;99.90
68681;DHT22;55836;49.858;6.756;2023-09-18T03:36:27;17.50;99.90
68681;DHT22;55836;49.858;6.756;2023-09-18T03:38:52;17.30;99.90
68681;DHT22;55836;49.858;6.756;2023-09-18T03:41:18;17.40;99.90
68681;DHT22;55836;49.858;6.756;2023-09-18T03:43:43;17.50;99.90
68681;DHT22;55836;49.858;6.756;2023-09-18T03:46:12;17.30;99.90
68681;DHT22;55836;49.858;6.756;2023-09-18T03:48:38;17.50;99.90
68681;DHT22;55836;49.858;6.756;2023-09-18T03:51:04;17.50;99.90
68681;DHT22;55836;49.858;6.756;2023-09-18T03:53:32;17.40;99.90
68681;DHT22;55836;49.858;6.756;2023-09-18T03:55:57;17.30;99.90
68681;DHT22;55836;49.858;6.756;2023-09-18T03:58:23;17.30;99.90
68681;DHT22;55836;49.858;6.756;2023-09-18T04:00:48;17.30;99.90
68681;DHT22;55836;49.858;6.756;2023-09-18T04:03:17;17.40;99.90
68681;DHT22;55836;49.858;6.756;2023-09-18T04:05:45;17.40;99.90
68681;DHT22;55836;49.858;6.756;2023-09-18T04:08:11;17.40;99.90
68681;DHT22;55836;49.858;6.756;2023-09-18T04:10:36;17.20;99.90
68681;DHT22;55836;49.858;6.756;2023-09-18T04:13:02;17.10;99.90
68681;DHT22;55836;49.858;6.756;2023-09-18T04:15:28;17.30;99.90
68681;DHT22;55836;49.858;6.756;2023-09-18T04:17:56;17.30;99.90
68681;DHT22;55836;49.858;6.756;2023-09-18T04:20:21;17.40;99.90
68681;DHT22;55836;49.858;6.756;2023-09-18T04:26:02;17.30;99.90
68681;DHT22;55836;49.858;6.756;2023-09-18T04:28:28;17.20;99.90
68681;DHT22;55836;49.858;6.756;2023-09-18T04:30:54;17.20;99.90
68681;DHT22;55836;49.858;6.756;2023-09-18T04:33:19;17.20;99.90
68681;DHT22;55836;49.858;6.756;2023-09-18T04:35:46;17.30;99.90
68681;DHT22;55836;49.858;6.756;2023-09-18T04:38:12;17.30;99.90
68681;DHT22;55836;49.858;6.756;2023-09-18T04:40:40;17.40;99.90
68681;DHT22;55836;49.858;6.756;2023-09-18T04:43:06;17.20;99.90
68681;DHT22;55836;49.858;6.756;2023-09-18T04:45:32;17.30;99.90
68681;DHT22;55836;49.858;6.756;2023-09-18T04:47:58;17.30;99.90
68681;DHT22;55836;49.858;6.756;2023-09-18T04:50:23;17.20;99.90
68681;DHT22;55836;49.858;6.756;2023-09-18T04:52:50;17.30;99.90
68681;DHT22;55836;49.858;6.756;2023-09-18T04:55:17;17.20;99.90
68681;DHT22;55836;49.858;6.756;2023-09-18T04:57:43;17.20;99.90
68681;DHT22;55836;49.858;6.756;2023-09-18T05:00:08;17.10;99.90
68681;DHT22;55836;49.858;6.756;2023-09-18T05:02:38;17.10;99.90
68681;DHT22;55836;49.858;6.756;2023-09-18T05:05:03;17.30;99.90
68681;DHT22;55836;49.858;6.756;2023-09-18T05:07:30;17.20;99.90
68681;DHT22;55836;49.858;6.756;2023-09-18T05:09:56;17.10;99.90
68681;DHT22;55836;49.858;6.756;2023-09-18T05:12:21;17.20;99.90
68681;DHT22;55836;49.858;6.756;2023-09-18T05:14:47;17.20;99.90
68681;DHT22;55836;49.858;6.756;2023-09-18T05:17:16;17.20;99.90
68681;DHT22;55836;49.858;6.756;2023-09-18T05:19:42;17.10;99.90
68681;DHT22;55836;49.858;6.756;2023-09-18T05:22:11;17.20;99.90
68681;DHT22;55836;49.858;6.756;2023-09-18T05:24:38;17.10;99.90
68681;DHT22;55836;49.858;6.756;2023-09-18T05:27:04;17.00;99.90
68681;DHT22;55836;49.858;6.756;2023-09-18T05:29:31;17.10;99.90
68681;DHT22;55836;49.858;6.756;2023-09-18T05:31:57;17.10;99.90
68681;DHT22;55836;49.858;6.756;2023-09-18T05:34:23;17.10;99.90
68681;DHT22;55836;49.858;6.756;2023-09-18T05:36:49;17.10;99.90
68681;DHT22;55836;49.858;6.756;2023-09-18T05:39:15;17.20;99.90
68681;DHT22;55836;49.858;6.756;2023-09-18T05:41:40;17.10;99.90
68681;DHT22;55836;49.858;6.756;2023-09-18T05:44:07;17.10;99.90
68681;DHT22;55836;49.858;6.756;2023-09-18T05:46:35;17.00;99.90
68681;DHT22;55836;49.858;6.756;2023-09-18T05:49:02;17.10;99.90
68681;DHT22;55836;49.858;6.756;2023-09-18T05:51:27;17.20;99.90
68681;DHT22;55836;49.858;6.756;2023-09-18T05:53:53;17.20;99.90
68681;DHT22;55836;49.858;6.756;2023-09-18T05:56:18;17.30;99.90
68681;DHT22;55836;49.858;6.756;2023-09-18T05:58:44;17.10;99.90
68681;DHT22;55836;49.858;6.756;2023-09-18T06:01:10;17.20;99.90
68681;DHT22;55836;49.858;6.756;2023-09-18T06:03:35;17.20;99.90
68681;DHT22;55836;49.858;6.756;2023-09-18T06:06:02;17.30;99.90
68681;DHT22;55836;49.858;6.756;2023-09-18T06:08:29;17.30;99.90
68681;DHT22;55836;49.858;6.756;2023-09-18T06:10:56;17.30;99.90
68681;DHT22;55836;49.858;6.756;2023-09-18T06:13:23;17.30;99.90
68681;DHT22;55836;49.858;6.756;2023-09-18T06:15:50;17.40;99.90
68681;DHT22;55836;49.858;6.756;2023-09-18T06:18:16;17.50;99.90
68681;DHT22;55836;49.858;6.756;2023-09-18T06:20:41;17.50;99.90
68681;DHT22;55836;49.858;6.756;2023-09-18T06:23:09;17.40;99.90
68681;DHT22;55836;49.858;6.756;2023-09-18T06:25:34;17.30;99.90
68681;DHT22;55836;49.858;6.756;2023-09-18T06:28:00;17.40;99.90
68681;DHT22;55836;49.858;6.756;2023-09-18T06:30:29;17.40;99.90
68681;DHT22;55836;49.858;6.756;2023-09-18T06:32:56;17.50;99.90
68681;DHT22;55836;49.858;6.756;2023-09-18T06:35:22;17.30;99.90
68681;DHT22;55836;49.858;6.756;2023-09-18T06:37:48;17.60;99.90
68681;DHT22;55836;49.858;6.756;2023-09-18T06:40:13;17.40;99.90
68681;DHT22;55836;49.858;6.756;2023-09-18T06:42:39;17.30;99.90
68681;DHT22;55836;49.858;6.756;2023-09-18T06:45:06;17.30;99.90
68681;DHT22;55836;49.858;6.756;2023-09-18T06:47:33;17.50;99.90
68681;DHT22;55836;49.858;6.756;2023-09-18T06:49:58;17.30;99.90
68681;DHT22;55836;49.858;6.756;2023-09-18T06:52:25;17.40;99.90
68681;DHT22;55836;49.858;6.756;2023-09-18T06:54:52;17.30;99.90
68681;DHT22;55836;49.858;6.756;2023-09-18T06:57:18;17.30;99.90
68681;DHT22;55836;49.858;6.756;2023-09-18T06:59:43;17.60;99.90
68681;DHT22;55836;49.858;6.756;2023-09-18T07:02:10;17.40;99.90
68681;DHT22;55836;49.858;6.756;2023-09-18T07:04:35;17.50;99.90
68681;DHT22;55836;49.858;6.756;2023-09-18T07:07:02;17.60;99.90
68681;DHT22;55836;49.858;6.756;2023-09-18T07:09:28;17.60;99.90
68681;DHT22;55836;49.858;6.756;2023-09-18T07:11:54;17.50;99.90
68681;DHT22;55836;49.858;6.756;2023-09-18T07:14:19;17.60;99.90
68681;DHT22;55836;49.858;6.756;2023-09-18T07:16:45;17.50;99.90
68681;DHT22;55836;49.858;6.756;2023-09-18T07:19:11;17.40;99.90
68681;DHT22;55836;49.858;6.756;2023-09-18T07:21:45;17.60;99.90
68681;DHT22;55836;49.858;6.756;2023-09-18T07:24:10;17.60;99.90
68681;DHT22;55836;49.858;6.756;2023-09-18T07:26:42;17.60;99.90
68681;DHT22;55836;49.858;6.756;2023-09-18T07:29:08;17.60;99.90
68681;DHT22;55836;49.858;6.756;2023-09-18T07:31:34;17.50;99.90
68681;DHT22;55836;49.858;6.756;2023-09-18T07:34:00;17.50;99.90
68681;DHT22;55836;49.858;6.756;2023-09-18T07:36:26;17.70;99.90
68681;DHT22;55836;49.858;6.756;2023-09-18T07:38:52;17.60;99.90
68681;DHT22;55836;49.858;6.756;2023-09-18T07:41:22;17.70;99.90
68681;DHT22;55836;49.858;6.756;2023-09-18T07:43:48;17.70;99.90
68681;DHT22;55836;49.858;6.756;2023-09-18T07:46:13;17.70;99.90
68681;DHT22;55836;49.858;6.756;2023-09-18T07:48:39;17.60;99.90
68681;DHT22;55836;49.858;6.756;2023-09-18T07:51:05;17.70;99.90
68681;DHT22;55836;49.858;6.756;2023-09-18T07:53:31;17.70;99.90
68681;DHT22;55836;49.858;6.756;2023-09-18T07:55:58;17.60;99.90
68681;DHT22;55836;49.858;6.756;2023-09-18T07:58:25;17.60;99.90
68681;DHT22;55836;49.858;6.756;2023-09-18T08:00:56;17.60;99.90
68681;DHT22;55836;49.858;6.756;2023-09-18T08:03:25;17.60;99.90
68681;DHT22;55836;49.858;6.756;2023-09-18T08:05:52;17.70;99.90
68681;DHT22;55836;49.858;6.756;2023-09-18T08:08:19;17.70;99.90
68681;DHT22;55836;49.858;6.756;2023-09-18T08:10:49;17.60;99.90
68681;DHT22;55836;49.858;6.756;2023-09-18T08:13:14;17.60;99.90
68681;DHT22;55836;49.858;6.756;2023-09-18T08:15:40;17.60;99.90
68681;DHT22;55836;49.858;6.756;2023-09-18T08:18:06;17.70;99.90
68681;DHT22;55836;49.858;6.756;2023-09-18T08:20:31;17.70;99.90
68681;DHT22;55836;49.858;6.756;2023-09-18T08:22:58;17.70;99.90
68681;DHT22;55836;49.858;6.756;2023-09-18T08:25:27;17.70;99.90
68681;DHT22;55836;49.858;6.756;2023-09-18T08:27:53;17.70;99.90
68681;DHT22;55836;49.858;6.756;2023-09-18T08:30:18;17.70;99.90
68681;DHT22;55836;49.858;6.756;2023-09-18T08:32:46;17.70;99.90
68681;DHT22;55836;49.858;6.756;2023-09-18T08:35:13;17.90;99.90
68681;DHT22;55836;49.858;6.756;2023-09-18T08:37:43;18.00;99.90
68681;DHT22;55836;49.858;6.756;2023-09-18T08:40:12;18.00;99.90
68681;DHT22;55836;49.858;6.756;2023-09-18T08:42:43;17.90;99.90
68681;DHT22;55836;49.858;6.756;2023-09-18T08:45:10;17.90;99.90
68681;DHT22;55836;49.858;6.756;2023-09-18T08:47:39;17.90;99.90
68681;DHT22;55836;49.858;6.756;2023-09-18T08:50:06;18.00;99.90
68681;DHT22;55836;49.858;6.756;2023-09-18T08:52:35;18.00;99.90
68681;DHT22;55836;49.858;6.756;2023-09-18T08:55:01;18.10;99.90
68681;DHT22;55836;49.858;6.756;2023-09-18T08:57:29;18.00;99.90
68681;DHT22;55836;49.858;6.756;2023-09-18T08:59:56;18.00;99.90
68681;DHT22;55836;49.858;6.756;2023-09-18T09:02:22;18.00;99.90
68681;DHT22;55836;49.858;6.756;2023-09-18T09:04:48;17.90;99.90
68681;DHT22;55836;49.858;6.756;2023-09-18T09:07:14;17.90;99.90
68681;DHT22;55836;49.858;6.756;2023-09-18T09:09:40;17.90;99.90
68681;DHT22;55836;49.858;6.756;2023-09-18T09:12:07;17.90;99.90
68681;DHT22;55836;49.858;6.756;2023-09-18T09:14:33;17.90;99.90
68681;DHT22;55836;49.858;6.756;2023-09-18T09:16:59;18.00;99.90
68681;DHT22;55836;49.858;6.756;2023-09-18T09:19:33;18.00;99.90
68681;DHT22;55836;49.858;6.756;2023-09-18T09:22:01;18.00;99.90
68681;DHT22;55836;49.858;6.756;2023-09-18T09:24:43;18.20;99.90
68681;DHT22;55836;49.858;6.756;2023-09-18T09:27:10;18.30;99.90
68681;DHT22;55836;49.858;6.756;2023-09-18T09:29:36;18.20;99.90
68681;DHT22;55836;49.858;6.756;2023-09-18T09:32:18;18.20;99.90
68681;DHT22;55836;49.858;6.756;2023-09-18T09:34:45;18.30;99.90
68681;DHT22;55836;49.858;6.756;2023-09-18T09:37:11;18.30;99.90
68681;DHT22;55836;49.858;6.756;2023-09-18T09:39:50;18.20;99.90
68681;DHT22;55836;49.858;6.756;2023-09-18T09:42:20;18.20;99.90
68681;DHT22;55836;49.858;6.756;2023-09-18T09:45:04;18.30;99.90
68681;DHT22;55836;49.858;6.756;2023-09-18T09:47:34;18.30;99.90
68681;DHT22;55836;49.858;6.756;2023-09-18T09:50:15;18.40;99.90
68681;DHT22;55836;49.858;6.756;2023-09-18T09:52:47;18.40;99.90
68681;DHT22;55836;49.858;6.756;2023-09-18T09:55:26;18.60;99.90
68681;DHT22;55836;49.858;6.756;2023-09-18T09:57:58;18.60;99.90
68681;DHT22;55836;49.858;6.756;2023-09-18T10:00:33;18.70;99.90
68681;DHT22;55836;49.858;6.756;2023-09-18T10:03:10;18.70;99.90
68681;DHT22;55836;49.858;6.756;2023-09-18T10:05:37;18.80;99.90
68681;DHT22;55836;49.858;6.756;2023-09-18T10:08:16;18.90;99.90
68681;DHT22;55836;49.858;6.756;2023-09-18T10:15:42;19.00;99.90
68681;DHT22;55836;49.858;6.756;2023-09-18T10:18:17;19.00;99.90
68681;DHT22;55836;49.858;6.756;2023-09-18T10:20:44;19.00;99.90
68681;DHT22;55836;49.858;6.756;2023-09-18T10:23:21;19.10;99.90
68681;DHT22;55836;49.858;6.756;2023-09-18T10:25:53;19.20;99.90
68681;DHT22;55836;49.858;6.756;2023-09-18T10:28:23;19.50;99.90
68681;DHT22;55836;49.858;6.756;2023-09-18T10:30:49;19.60;99.90
68681;DHT22;55836;49.858;6.756;2023-09-18T10:33:16;20.10;99.90
68681;DHT22;55836;49.858;6.756;2023-09-18T10:35:43;20.60;99.90
68681;DHT22;55836;49.858;6.756;2023-09-18T10:38:12;20.70;99.90
68681;DHT22;55836;49.858;6.756;2023-09-18T10:40:39;20.60;99.90
68681;DHT22;55836;49.858;6.756;2023-09-18T10:43:07;20.80;99.90
68681;DHT22;55836;49.858;6.756;2023-09-18T10:45:35;21.10;99.90
68681;DHT22;55836;49.858;6.756;2023-09-18T10:48:02;21.20;99.90
68681;DHT22;55836;49.858;6.756;2023-09-18T10:50:29;21.20;99.90
68681;DHT22;55836;49.858;6.756;2023-09-18T10:52:57;21.40;99.90
68681;DHT22;55836;49.858;6.756;2023-09-18T10:55:23;21.60;99.90
68681;DHT22;55836;49.858;6.756;2023-09-18T10:57:53;21.70;99.90
68681;DHT22;55836;49.858;6.756;2023-09-18T11:00:21;21.80;99.90
68681;DHT22;55836;49.858;6.756;2023-09-18T11:02:52;21.90;99.90
68681;DHT22;55836;49.858;6.756;2023-09-18T11:05:29;21.90;99.90
68681;DHT22;55836;49.858;6.756;2023-09-18T11:10:59;21.70;99.90
68681;DHT22;55836;49.858;6.756;2023-09-18T11:13:50;21.50;99.90
68681;DHT22;55836;49.858;6.756;2023-09-18T11:16:34;21.30;99.90
68681;DHT22;55836;49.858;6.756;2023-09-18T11:19:08;21.10;99.90
68681;DHT22;55836;49.858;6.756;2023-09-18T11:21:34;21.30;99.90
68681;DHT22;55836;49.858;6.756;2023-09-18T11:24:04;21.20;99.90
68681;DHT22;55836;49.858;6.756;2023-09-18T11:26:35;21.20;99.90
68681;DHT22;55836;49.858;6.756;2023-09-18T11:29:05;21.40;99.90
68681;DHT22;55836;49.858;6.756;2023-09-18T11:31:48;21.50;99.90
68681;DHT22;55836;49.858;6.756;2023-09-18T11:34:24;21.40;99.90
68681;DHT22;55836;49.858;6.756;2023-09-18T11:36:52;21.30;99.90
68681;DHT22;55836;49.858;6.756;2023-09-18T11:39:37;21.80;99.90
68681;DHT22;55836;49.858;6.756;2023-09-18T11:44:33;21.70;99.90
68681;DHT22;55836;49.858;6.756;2023-09-18T11:46:59;21.70;99.90
68681;DHT22;55836;49.858;6.756;2023-09-18T11:49:26;22.00;99.90
68681;DHT22;55836;49.858;6.756;2023-09-18T11:51:53;22.10;99.90
68681;DHT22;55836;49.858;6.756;2023-09-18T11:54:19;22.20;99.90
68681;DHT22;55836;49.858;6.756;2023-09-18T11:56:46;22.10;99.90
68681;DHT22;55836;49.858;6.756;2023-09-18T11:59:12;22.10;99.90
68681;DHT22;55836;49.858;6.756;2023-09-18T12:01:38;22.10;99.90
68681;DHT22;55836;49.858;6.756;2023-09-18T12:04:12;22.20;99.90
68681;DHT22;55836;49.858;6.756;2023-09-18T12:06:41;22.10;99.90
68681;DHT22;55836;49.858;6.756;2023-09-18T12:09:08;22.10;99.90
68681;DHT22;55836;49.858;6.756;2023-09-18T12:11:35;22.30;99.90
68681;DHT22;55836;49.858;6.756;2023-09-18T12:14:01;22.50;99.90
68681;DHT22;55836;49.858;6.756;2023-09-18T12:16:28;22.60;99.90
68681;DHT22;55836;49.858;6.756;2023-09-18T12:18:53;22.60;99.90
68681;DHT22;55836;49.858;6.756;2023-09-18T12:21:19;22.70;99.90
68681;DHT22;55836;49.858;6.756;2023-09-18T12:23:45;22.80;99.90
68681;DHT22;55836;49.858;6.756;2023-09-18T12:26:13;23.00;99.90
68681;DHT22;55836;49.858;6.756;2023-09-18T12:28:40;23.20;99.90
68681;DHT22;55836;49.858;6.756;2023-09-18T12:31:10;23.10;99.90
68681;DHT22;55836;49.858;6.756;2023-09-18T12:33:37;23.10;99.90
68681;DHT22;55836;49.858;6.756;2023-09-18T12:36:04;23.10;99.90
68681;DHT22;55836;49.858;6.756;2023-09-18T12:38:31;23.20;99.90
68681;DHT22;55836;49.858;6.756;2023-09-18T12:40:57;23.30;99.90
68681;DHT22;55836;49.858;6.756;2023-09-18T12:43:33;23.20;99.90
68681;DHT22;55836;49.858;6.756;2023-09-18T12:45:59;23.30;99.90
68681;DHT22;55836;49.858;6.756;2023-09-18T12:48:25;23.30;99.90
68681;DHT22;55836;49.858;6.756;2023-09-18T12:50:54;23.30;99.90
68681;DHT22;55836;49.858;6.756;2023-09-18T12:53:22;23.50;99.90
68681;DHT22;55836;49.858;6.756;2023-09-18T12:55:48;23.70;99.90
68681;DHT22;55836;49.858;6.756;2023-09-18T12:58:19;23.60;99.90
68681;DHT22;55836;49.858;6.756;2023-09-18T13:00:47;23.50;99.90
68681;DHT22;55836;49.858;6.756;2023-09-18T13:03:13;23.50;99.90
68681;DHT22;55836;49.858;6.756;2023-09-18T13:05:39;23.50;99.90
68681;DHT22;55836;49.858;6.756;2023-09-18T13:08:05;23.20;99.90
68681;DHT22;55836;49.858;6.756;2023-09-18T13:10:44;23.20;99.90
68681;DHT22;55836;49.858;6.756;2023-09-18T13:15:43;23.50;99.90
68681;DHT22;55836;49.858;6.756;2023-09-18T13:18:13;23.80;99.90
68681;DHT22;55836;49.858;6.756;2023-09-18T13:20:39;23.60;99.90
68681;DHT22;55836;49.858;6.756;2023-09-18T13:23:08;23.50;99.90
68681;DHT22;55836;49.858;6.756;2023-09-18T13:25:38;23.70;99.90
68681;DHT22;55836;49.858;6.756;2023-09-18T13:28:08;24.00;99.90
68681;DHT22;55836;49.858;6.756;2023-09-18T13:30:36;24.00;99.90
68681;DHT22;55836;49.858;6.756;2023-09-18T13:33:15;23.80;99.90
68681;DHT22;55836;49.858;6.756;2023-09-18T13:35:43;23.90;99.90
68681;DHT22;55836;49.858;6.756;2023-09-18T13:38:09;23.80;99.90
68681;DHT22;55836;49.858;6.756;2023-09-18T13:40:37;23.80;99.90
68681;DHT22;55836;49.858;6.756;2023-09-18T13:43:04;23.70;99.90
68681;DHT22;55836;49.858;6.756;2023-09-18T13:45:30;23.90;99.90
68681;DHT22;55836;49.858;6.756;2023-09-18T13:47:56;24.00;99.90
68681;DHT22;55836;49.858;6.756;2023-09-18T13:50:22;23.90;99.90
68681;DHT22;55836;49.858;6.756;2023-09-18T13:52:47;23.80;99.90
68681;DHT22;55836;49.858;6.756;2023-09-18T13:55:13;24.10;99.90
68681;DHT22;55836;49.858;6.756;2023-09-18T13:57:39;24.00;99.90
68681;DHT22;55836;49.858;6.756;2023-09-18T14:00:07;23.60;99.90
68681;DHT22;55836;49.858;6.756;2023-09-18T14:02:37;23.50;99.90
68681;DHT22;55836;49.858;6.756;2023-09-18T14:05:03;23.50;99.90
68681;DHT22;55836;49.858;6.756;2023-09-18T14:07:29;23.70;99.90
68681;DHT22;55836;49.858;6.756;2023-09-18T14:09:55;23.60;99.90
68681;DHT22;55836;49.858;6.756;2023-09-18T14:12:21;23.70;99.90
68681;DHT22;55836;49.858;6.756;2023-09-18T14:14:47;23.60;99.90
68681;DHT22;55836;49.858;6.756;2023-09-18T14:17:13;23.60;99.90
68681;DHT22;55836;49.858;6.756;2023-09-18T14:19:39;23.60;99.90
68681;DHT22;55836;49.858;6.756;2023-09-18T14:22:05;23.40;99.90
68681;DHT22;55836;49.858;6.756;2023-09-18T14:24:32;23.40;99.90
68681;DHT22;55836;49.858;6.756;2023-09-18T14:27:03;23.70;99.90
68681;DHT22;55836;49.858;6.756;2023-09-18T14:29:29;23.60;99.90
68681;DHT22;55836;49.858;6.756;2023-09-18T14:31:59;23.70;99.90
68681;DHT22;55836;49.858;6.756;2023-09-18T14:34:25;23.80;99.90
68681;DHT22;55836;49.858;6.756;2023-09-18T14:36:50;23.50;99.90
68681;DHT22;55836;49.858;6.756;2023-09-18T14:39:18;23.50;99.90
68681;DHT22;55836;49.858;6.756;2023-09-18T14:41:47;23.60;99.90
68681;DHT22;55836;49.858;6.756;2023-09-18T14:44:50;23.70;99.90
68681;DHT22;55836;49.858;6.756;2023-09-18T14:47:28;23.60;99.90
68681;DHT22;55836;49.858;6.756;2023-09-18T14:50:06;23.70;99.90
68681;DHT22;55836;49.858;6.756;2023-09-18T14:52:36;23.70;99.90
68681;DHT22;55836;49.858;6.756;2023-09-18T14:55:14;23.50;99.90
68681;DHT22;55836;49.858;6.756;2023-09-18T14:57:46;23.40;99.90
68681;DHT22;55836;49.858;6.756;2023-09-18T15:00:21;23.30;99.90
68681;DHT22;55836;49.858;6.756;2023-09-18T15:02:46;23.20;99.90
68681;DHT22;55836;49.858;6.756;2023-09-18T15:05:18;23.10;99.90
68681;DHT22;55836;49.858;6.756;2023-09-18T15:07:44;23.00;99.90
68681;DHT22;55836;49.858;6.756;2023-09-18T15:13:00;23.00;99.90
68681;DHT22;55836;49.858;6.756;2023-09-18T15:15:25;23.00;99.90
68681;DHT22;55836;49.858;6.756;2023-09-18T15:29:46;23.30;99.90
68681;DHT22;55836;49.858;6.756;2023-09-18T15:32:12;23.40;99.90
68681;DHT22;55836;49.858;6.756;2023-09-18T15:34:37;23.50;99.90
68681;DHT22;55836;49.858;6.756;2023-09-18T15:37:03;23.40;99.90
68681;DHT22;55836;49.858;6.756;2023-09-18T15:39:30;23.50;99.90
68681;DHT22;55836;49.858;6.756;2023-09-18T15:42:01;23.40;99.90
68681;DHT22;55836;49.858;6.756;2023-09-18T15:44:26;23.40;99.90
68681;DHT22;55836;49.858;6.756;2023-09-18T15:46:52;23.60;99.90
68681;DHT22;55836;49.858;6.756;2023-09-18T15:49:17;23.50;99.90
68681;DHT22;55836;49.858;6.756;2023-09-18T15:51:43;23.30;99.90
68681;DHT22;55836;49.858;6.756;2023-09-18T15:54:09;23.30;99.90
68681;DHT22;55836;49.858;6.756;2023-09-18T15:56:35;23.50;99.90
68681;DHT22;55836;49.858;6.756;2023-09-18T15:59:01;23.60;99.90
68681;DHT22;55836;49.858;6.756;2023-09-18T16:01:27;23.60;99.90
68681;DHT22;55836;49.858;6.756;2023-09-18T16:03:53;23.60;99.90